Time;durP1;ratioP1;P1;durP2;ratioP2;P2;SDS_P1;SDS_P2;PMS_P1;PMS_P2;Temp;Humidity;BMP_temperature;BMP_pressure;BME280_temperature;BME280_humidity;BME280_pressure;Samples;Min_cycle;Max_cycle;Signal;HPM_P1;HPM_P2
2023/01/20 00:01:11;;;;;;;;;;;3.20;89.30;;;;;;5094430;28;19912;-35
2023/01/20 00:03:40;;;;;;;;;;;3.20;89.20;;;;;;5094670;28;20277;-35
2023/01/20 00:06:06;;;;;;;;;;;3.20;89.10;;;;;;5094802;28;20007;-35
2023/01/20 00:08:32;;;;;;;;;;;3.30;89.10;;;;;;5094365;28;19912;-34
2023/01/20 00:10:57;;;;;;;;;;;3.20;88.90;;;;;;5094196;28;19912;-34
2023/01/20 00:13:23;;;;;;;;;;;3.20;89.00;;;;;;5093850;28;19920;-37
2023/01/20 00:15:48;;;;;;;;;;;3.20;89.10;;;;;;5094201;28;19912;-35
2023/01/20 00:18:14;;;;;;;;;;;3.30;89.20;;;;;;5094154;28;20448;-35
2023/01/20 00:20:40;;;;;;;;;;;3.30;89.10;;;;;;5093491;28;19916;-35
2023/01/20 00:23:05;;;;;;;;;;;3.30;89.10;;;;;;5093948;28;19967;-35
2023/01/20 00:25:31;;;;;;;;;;;3.40;89.10;;;;;;5092396;28;19916;-35
2023/01/20 00:27:56;;;;;;;;;;;3.30;89.10;;;;;;5093795;28;20590;-36
2023/01/20 00:30:22;;;;;;;;;;;3.40;89.10;;;;;;5093706;28;20023;-35
2023/01/20 00:32:47;;;;;;;;;;;3.40;89.10;;;;;;5093717;28;20371;-41
2023/01/20 00:35:13;;;;;;;;;;;3.40;89.10;;;;;;5093658;28;19923;-34
2023/01/20 00:37:38;;;;;;;;;;;3.50;89.20;;;;;;5093702;28;19916;-34
2023/01/20 00:40:04;;;;;;;;;;;3.50;89.10;;;;;;5093854;28;19950;-34
2023/01/20 00:42:30;;;;;;;;;;;3.40;89.00;;;;;;5093757;28;20416;-34
2023/01/20 00:44:56;;;;;;;;;;;3.50;89.10;;;;;;5093546;28;19916;-35
2023/01/20 00:47:21;;;;;;;;;;;3.50;89.20;;;;;;5093432;28;19923;-33
2023/01/20 00:49:47;;;;;;;;;;;3.50;89.10;;;;;;5093200;28;19908;-53
2023/01/20 00:52:12;;;;;;;;;;;3.50;89.10;;;;;;5093569;28;19916;-36
2023/01/20 00:54:38;;;;;;;;;;;3.50;89.10;;;;;;5092877;28;19919;-40
2023/01/20 00:57:03;;;;;;;;;;;3.50;89.10;;;;;;5092808;28;20356;-35
2023/01/20 00:59:29;;;;;;;;;;;3.60;89.00;;;;;;5093053;28;19922;-35
2023/01/20 01:01:54;;;;;;;;;;;3.50;88.90;;;;;;5092751;28;20415;-36
2023/01/20 01:04:20;;;;;;;;;;;3.50;88.80;;;;;;5092683;28;19914;-34
2023/01/20 01:06:45;;;;;;;;;;;3.50;88.90;;;;;;5092659;28;20413;-37
2023/01/20 01:09:11;;;;;;;;;;;3.50;89.00;;;;;;5092489;28;20002;-35
2023/01/20 01:11:36;;;;;;;;;;;3.50;89.00;;;;;;5092766;28;19913;-35
2023/01/20 01:14:02;;;;;;;;;;;3.50;88.80;;;;;;5092113;28;19920;-33
2023/01/20 01:16:27;;;;;;;;;;;3.50;88.90;;;;;;5092620;28;20384;-35
2023/01/20 01:18:53;;;;;;;;;;;3.50;88.90;;;;;;5092298;28;19909;-34
2023/01/20 01:21:19;;;;;;;;;;;3.50;88.80;;;;;;5092190;28;19956;-36
2023/01/20 01:23:45;;;;;;;;;;;3.50;88.70;;;;;;5092209;28;19909;-35
2023/01/20 01:26:10;;;;;;;;;;;3.40;88.70;;;;;;5092571;28;20411;-35
2023/01/20 01:28:36;;;;;;;;;;;3.40;88.70;;;;;;5092201;28;19931;-36
2023/01/20 01:31:02;;;;;;;;;;;3.30;88.50;;;;;;5092260;28;19995;-36
2023/01/20 01:33:28;;;;;;;;;;;3.30;88.70;;;;;;5092110;28;20349;-35
2023/01/20 01:35:54;;;;;;;;;;;3.30;88.90;;;;;;5092666;28;19909;-35
2023/01/20 01:38:20;;;;;;;;;;;3.40;89.00;;;;;;5092110;28;19909;-37
2023/01/20 01:40:49;;;;;;;;;;;3.40;88.70;;;;;;5091962;28;20339;-36
2023/01/20 01:43:25;;;;;;;;;;;3.30;88.70;;;;;;5092092;28;19953;-36
2023/01/20 01:45:50;;;;;;;;;;;3.30;88.70;;;;;;5091852;28;19915;-34
2023/01/20 01:48:17;;;;;;;;;;;3.30;88.70;;;;;;5092285;28;19944;-36
2023/01/20 01:50:45;;;;;;;;;;;3.40;88.80;;;;;;5091894;28;19958;-35
2023/01/20 01:53:12;;;;;;;;;;;3.40;88.70;;;;;;5092301;28;19908;-35
2023/01/20 01:55:40;;;;;;;;;;;3.40;88.70;;;;;;5092102;28;20356;-36
2023/01/20 01:58:08;;;;;;;;;;;3.50;88.70;;;;;;5091963;28;19959;-36
2023/01/20 02:00:33;;;;;;;;;;;3.40;88.50;;;;;;5091936;28;19961;-35
2023/01/20 02:02:59;;;;;;;;;;;3.40;88.50;;;;;;5092127;28;20011;-33
2023/01/20 02:05:26;;;;;;;;;;;3.40;88.50;;;;;;5091893;28;19915;-36
2023/01/20 02:07:52;;;;;;;;;;;3.40;88.70;;;;;;5091776;28;19952;-38
2023/01/20 02:10:17;;;;;;;;;;;3.40;88.50;;;;;;5091653;28;19908;-36
2023/01/20 02:12:46;;;;;;;;;;;3.40;88.50;;;;;;5090475;28;19923;-36
2023/01/20 02:15:12;;;;;;;;;;;3.40;88.60;;;;;;5091574;28;19919;-34
2023/01/20 02:18:00;;;;;;;;;;;3.40;88.40;;;;;;5091592;28;19977;-38
2023/01/20 02:20:33;;;;;;;;;;;3.40;88.30;;;;;;5083163;28;19951;-36
2023/01/20 02:23:31;;;;;;;;;;;3.40;88.50;;;;;;5091983;28;20370;-35
2023/01/20 02:26:19;;;;;;;;;;;3.40;88.50;;;;;;5057363;28;19915;-36
2023/01/20 02:28:51;;;;;;;;;;;3.40;88.40;;;;;;5082992;28;19935;-35
2023/01/20 02:31:23;;;;;;;;;;;3.50;88.50;;;;;;5091579;28;19919;-35
2023/01/20 02:34:10;;;;;;;;;;;3.50;88.50;;;;;;5091466;28;19966;-35
2023/01/20 02:36:35;;;;;;;;;;;3.60;88.50;;;;;;5091978;28;19915;-36
2023/01/20 02:39:04;;;;;;;;;;;3.50;88.40;;;;;;5091599;28;19909;-40
2023/01/20 02:41:29;;;;;;;;;;;3.60;88.40;;;;;;5090100;28;19915;-34
2023/01/20 02:44:02;;;;;;;;;;;3.60;88.50;;;;;;5090991;28;19912;-40
2023/01/20 02:46:40;;;;;;;;;;;3.60;88.40;;;;;;5095226;28;20002;-36
2023/01/20 02:49:24;;;;;;;;;;;3.70;88.30;;;;;;5095067;28;19912;-36
2023/01/20 02:51:52;;;;;;;;;;;3.70;88.30;;;;;;5095112;28;20405;-35
2023/01/20 02:54:19;;;;;;;;;;;3.60;88.30;;;;;;5095273;28;19912;-35
2023/01/20 02:56:46;;;;;;;;;;;3.60;88.30;;;;;;5094990;28;19909;-35
2023/01/20 02:59:13;;;;;;;;;;;3.60;88.30;;;;;;5095288;28;19908;-38
2023/01/20 03:01:42;;;;;;;;;;;3.60;88.30;;;;;;5094816;28;19912;-40
2023/01/20 03:04:09;;;;;;;;;;;3.60;88.30;;;;;;5094787;28;19908;-38
2023/01/20 03:06:37;;;;;;;;;;;3.60;88.30;;;;;;5094994;28;20011;-36
2023/01/20 03:09:05;;;;;;;;;;;3.60;88.30;;;;;;5094793;28;20362;-35
2023/01/20 03:11:33;;;;;;;;;;;3.60;88.30;;;;;;5094833;28;20368;-34
2023/01/20 03:14:01;;;;;;;;;;;3.60;88.30;;;;;;5094389;28;19921;-37
2023/01/20 03:16:27;;;;;;;;;;;3.60;88.30;;;;;;5094502;28;20073;-36
2023/01/20 03:18:53;;;;;;;;;;;3.50;88.30;;;;;;5094513;28;19961;-36
2023/01/20 03:21:19;;;;;;;;;;;3.50;88.30;;;;;;5093212;28;19959;-41
2023/01/20 03:23:46;;;;;;;;;;;3.50;88.30;;;;;;5094474;28;19912;-35
2023/01/20 03:26:13;;;;;;;;;;;3.50;88.40;;;;;;5094328;28;20009;-36
2023/01/20 03:28:40;;;;;;;;;;;3.50;88.90;;;;;;5094199;28;19916;-35
2023/01/20 03:31:13;;;;;;;;;;;3.50;88.40;;;;;;5094709;28;20347;-36
2023/01/20 03:33:38;;;;;;;;;;;3.50;88.40;;;;;;5094257;28;19912;-36
2023/01/20 03:36:04;;;;;;;;;;;3.50;88.30;;;;;;5094209;28;19919;-35
2023/01/20 03:38:29;;;;;;;;;;;3.50;88.30;;;;;;5094410;28;19998;-36
2023/01/20 03:41:08;;;;;;;;;;;3.50;88.40;;;;;;5094457;28;19942;-35
2023/01/20 03:43:44;;;;;;;;;;;3.50;88.30;;;;;;5094071;28;19912;-35
2023/01/20 03:46:20;;;;;;;;;;;3.60;88.40;;;;;;5093922;28;19999;-36
2023/01/20 03:48:50;;;;;;;;;;;3.60;88.30;;;;;;5094221;28;19916;-36
2023/01/20 03:51:15;;;;;;;;;;;3.50;88.30;;;;;;5094247;28;19923;-38
2023/01/20 03:53:45;;;;;;;;;;;3.60;88.30;;;;;;5093914;28;20375;-36
2023/01/20 03:56:11;;;;;;;;;;;3.50;88.10;;;;;;5093093;28;20003;-35
2023/01/20 03:58:38;;;;;;;;;;;3.50;88.10;;;;;;5093616;28;19943;-36
2023/01/20 04:01:05;;;;;;;;;;;3.50;88.30;;;;;;5093672;28;20264;-36
2023/01/20 04:03:32;;;;;;;;;;;3.50;88.30;;;;;;5093656;28;20415;-36
2023/01/20 04:05:59;;;;;;;;;;;3.50;88.30;;;;;;5093572;28;19967;-36
2023/01/20 04:08:26;;;;;;;;;;;3.60;88.30;;;;;;5093679;28;19912;-36
2023/01/20 04:10:54;;;;;;;;;;;3.60;88.30;;;;;;5093780;28;19926;-36
2023/01/20 04:13:19;;;;;;;;;;;3.60;88.30;;;;;;5093355;28;20380;-36
2023/01/20 04:15:45;;;;;;;;;;;3.60;88.20;;;;;;5093629;28;19920;-35
2023/01/20 04:18:14;;;;;;;;;;;3.60;88.20;;;;;;5093727;28;19912;-34
2023/01/20 04:20:40;;;;;;;;;;;3.50;88.10;;;;;;5093611;28;19919;-35
2023/01/20 04:23:06;;;;;;;;;;;3.50;88.20;;;;;;5093302;28;20282;-36
2023/01/20 04:25:32;;;;;;;;;;;3.50;88.10;;;;;;5093165;28;20358;-36
2023/01/20 04:27:58;;;;;;;;;;;3.50;88.70;;;;;;5093133;28;19955;-36
2023/01/20 04:30:23;;;;;;;;;;;3.50;88.20;;;;;;5093408;28;19959;-35
2023/01/20 04:32:49;;;;;;;;;;;3.50;88.20;;;;;;5093256;28;20355;-41
2023/01/20 04:35:16;;;;;;;;;;;3.40;88.10;;;;;;5093383;28;19923;-35
2023/01/20 04:37:41;;;;;;;;;;;3.50;88.20;;;;;;5093072;28;19949;-36
2023/01/20 04:40:07;;;;;;;;;;;3.50;88.30;;;;;;5092896;28;19978;-36
2023/01/20 04:42:33;;;;;;;;;;;3.50;88.20;;;;;;5093291;28;19920;-35
2023/01/20 04:44:58;;;;;;;;;;;3.50;88.10;;;;;;5092844;28;20295;-36
2023/01/20 04:47:24;;;;;;;;;;;3.40;87.80;;;;;;5091601;28;20391;-34
2023/01/20 04:49:49;;;;;;;;;;;3.40;88.00;;;;;;5092778;28;19923;-36
2023/01/20 04:52:15;;;;;;;;;;;3.40;88.00;;;;;;5091455;28;19955;-36
2023/01/20 04:54:41;;;;;;;;;;;3.30;88.00;;;;;;5092830;28;20292;-38
2023/01/20 04:57:06;;;;;;;;;;;3.30;88.10;;;;;;5092799;28;19943;-35
2023/01/20 04:59:32;;;;;;;;;;;3.40;88.20;;;;;;5091296;28;19912;-36
2023/01/20 05:01:57;;;;;;;;;;;3.40;88.20;;;;;;5091446;28;20367;-37
2023/01/20 05:04:22;;;;;;;;;;;3.40;88.20;;;;;;5092639;28;19985;-35
2023/01/20 05:06:48;;;;;;;;;;;3.40;88.10;;;;;;5092476;28;19912;-38
2023/01/20 05:09:14;;;;;;;;;;;3.40;88.10;;;;;;5091946;28;19912;-36
2023/01/20 05:11:40;;;;;;;;;;;3.40;88.10;;;;;;5092474;28;20007;-39
2023/01/20 05:14:06;;;;;;;;;;;3.40;88.20;;;;;;5090898;28;20014;-36
2023/01/20 05:16:32;;;;;;;;;;;3.50;88.10;;;;;;5092341;28;20012;-35
2023/01/20 05:18:58;;;;;;;;;;;3.50;88.20;;;;;;5092421;28;19912;-36
2023/01/20 05:21:24;;;;;;;;;;;3.50;88.10;;;;;;5092732;28;19912;-35
2023/01/20 05:23:51;;;;;;;;;;;3.50;88.00;;;;;;5092631;28;19947;-37
2023/01/20 05:26:17;;;;;;;;;;;3.50;88.00;;;;;;5092266;28;19912;-36
2023/01/20 05:28:43;;;;;;;;;;;3.40;87.90;;;;;;5090962;28;19912;-34
2023/01/20 05:31:09;;;;;;;;;;;3.40;87.90;;;;;;5092350;28;19912;-38
2023/01/20 05:33:35;;;;;;;;;;;3.40;87.90;;;;;;5092133;28;20061;-42
2023/01/20 05:36:08;;;;;;;;;;;3.40;88.00;;;;;;5092553;28;19950;-35
2023/01/20 05:38:33;;;;;;;;;;;3.40;88.00;;;;;;5092270;28;20414;-36
2023/01/20 05:41:03;;;;;;;;;;;3.40;88.00;;;;;;5092010;28;20010;-36
2023/01/20 05:43:29;;;;;;;;;;;3.40;88.00;;;;;;5091971;28;19957;-36
2023/01/20 05:45:54;;;;;;;;;;;3.40;88.00;;;;;;5092105;28;19951;-35
2023/01/20 05:48:20;;;;;;;;;;;3.40;88.00;;;;;;5092069;28;19918;-37
2023/01/20 05:50:46;;;;;;;;;;;3.40;87.80;;;;;;5091879;28;19912;-34
2023/01/20 05:53:12;;;;;;;;;;;3.40;87.80;;;;;;5091964;28;20003;-34
2023/01/20 05:55:38;;;;;;;;;;;3.30;87.80;;;;;;5091795;28;19920;-34
2023/01/20 05:58:03;;;;;;;;;;;3.30;87.90;;;;;;5091928;28;19919;-34
2023/01/20 06:00:29;;;;;;;;;;;3.30;87.90;;;;;;5091926;28;19912;-35
2023/01/20 06:02:55;;;;;;;;;;;3.30;87.90;;;;;;5091696;28;19912;-35
2023/01/20 06:05:20;;;;;;;;;;;3.30;87.90;;;;;;5092091;28;19912;-36
2023/01/20 06:07:46;;;;;;;;;;;3.40;87.90;;;;;;5091919;28;20045;-35
2023/01/20 06:10:11;;;;;;;;;;;3.40;87.90;;;;;;5092098;28;19912;-35
2023/01/20 06:12:37;;;;;;;;;;;3.40;87.80;;;;;;5091741;28;20029;-35
2023/01/20 06:15:03;;;;;;;;;;;3.40;87.80;;;;;;5092076;28;20203;-35
2023/01/20 06:17:28;;;;;;;;;;;3.40;87.80;;;;;;5091696;28;20030;-35
2023/01/20 06:19:54;;;;;;;;;;;3.30;87.80;;;;;;5094449;28;20042;-35
2023/01/20 06:22:20;;;;;;;;;;;3.30;87.80;;;;;;5095938;28;19912;-36
2023/01/20 06:24:46;;;;;;;;;;;3.30;87.80;;;;;;5095902;28;20291;-35
2023/01/20 06:27:11;;;;;;;;;;;3.30;87.80;;;;;;5095993;28;19913;-35
2023/01/20 06:29:37;;;;;;;;;;;3.30;87.80;;;;;;5095698;28;19913;-36
2023/01/20 06:32:02;;;;;;;;;;;3.30;87.80;;;;;;5095509;28;19923;-35
2023/01/20 06:34:28;;;;;;;;;;;3.30;87.90;;;;;;5094065;28;19927;-35
2023/01/20 06:36:53;;;;;;;;;;;3.30;87.80;;;;;;5095775;28;19913;-39
2023/01/20 06:39:19;;;;;;;;;;;3.30;88.00;;;;;;5095478;28;19947;-38
2023/01/20 06:41:45;;;;;;;;;;;3.30;87.90;;;;;;5095467;28;19973;-35
2023/01/20 06:44:10;;;;;;;;;;;3.30;87.90;;;;;;5095784;28;19960;-35
2023/01/20 06:46:36;;;;;;;;;;;3.40;87.80;;;;;;5095297;28;20033;-36
2023/01/20 06:49:01;;;;;;;;;;;3.40;87.70;;;;;;5094005;28;19912;-36
2023/01/20 06:51:28;;;;;;;;;;;3.40;87.80;;;;;;5095227;28;20006;-36
2023/01/20 06:53:54;;;;;;;;;;;3.40;87.80;;;;;;5095040;28;19916;-38
2023/01/20 06:56:20;;;;;;;;;;;3.40;87.70;;;;;;5095177;28;19919;-37
2023/01/20 06:58:45;;;;;;;;;;;3.40;87.70;;;;;;5095084;28;20037;-36
2023/01/20 07:01:12;;;;;;;;;;;3.40;87.70;;;;;;5095002;28;19943;-38
2023/01/20 07:03:37;;;;;;;;;;;3.30;87.70;;;;;;5094941;28;20291;-36
2023/01/20 07:06:12;;;;;;;;;;;3.40;87.80;;;;;;5094771;28;20042;-38
2023/01/20 07:08:38;;;;;;;;;;;3.40;87.80;;;;;;5095052;28;20331;-35
2023/01/20 07:11:03;;;;;;;;;;;3.40;87.70;;;;;;5094876;28;19973;-34
2023/01/20 07:13:29;;;;;;;;;;;3.40;87.60;;;;;;5094444;28;19973;-36
2023/01/20 07:15:54;;;;;;;;;;;3.40;87.70;;;;;;5094632;28;19942;-34
2023/01/20 07:18:20;;;;;;;;;;;3.40;87.70;;;;;;5094978;28;19912;-36
2023/01/20 07:20:45;;;;;;;;;;;3.40;87.70;;;;;;5094508;28;19934;-35
2023/01/20 07:23:11;;;;;;;;;;;3.30;87.60;;;;;;5094921;28;20321;-36
2023/01/20 07:25:38;;;;;;;;;;;3.40;87.70;;;;;;5094613;28;19912;-35
2023/01/20 07:28:04;;;;;;;;;;;3.30;87.60;;;;;;5094589;28;19912;-35
2023/01/20 07:30:29;;;;;;;;;;;3.30;87.70;;;;;;5093131;28;19934;-36
2023/01/20 07:32:55;;;;;;;;;;;3.40;87.70;;;;;;5094372;28;20361;-35
2023/01/20 07:35:20;;;;;;;;;;;3.40;87.70;;;;;;5094261;28;20006;-36
2023/01/20 07:37:46;;;;;;;;;;;3.40;87.60;;;;;;5094560;28;19912;-33
2023/01/20 07:40:11;;;;;;;;;;;3.30;87.60;;;;;;5094115;28;19919;-37
2023/01/20 07:42:37;;;;;;;;;;;3.40;87.60;;;;;;5094561;28;19919;-35
2023/01/20 07:45:03;;;;;;;;;;;3.40;87.70;;;;;;5094003;28;19912;-34
2023/01/20 07:47:28;;;;;;;;;;;3.40;87.60;;;;;;5094008;28;19918;-35
2023/01/20 07:49:54;;;;;;;;;;;3.30;87.50;;;;;;5094114;28;20419;-35
2023/01/20 07:52:19;;;;;;;;;;;3.30;87.50;;;;;;5094104;28;19922;-38
2023/01/20 07:54:45;;;;;;;;;;;3.30;88.10;;;;;;5093974;28;19916;-36
2023/01/20 07:57:10;;;;;;;;;;;3.30;87.50;;;;;;5094080;28;19958;-35
2023/01/20 07:59:36;;;;;;;;;;;3.30;87.60;;;;;;5093913;28;19919;-36
2023/01/20 08:02:01;;;;;;;;;;;3.30;87.60;;;;;;5094020;28;19912;-37
2023/01/20 08:04:26;;;;;;;;;;;3.30;87.50;;;;;;5093714;28;19913;-35
2023/01/20 08:06:52;;;;;;;;;;;3.30;87.60;;;;;;5093640;28;19974;-34
2023/01/20 08:09:17;;;;;;;;;;;3.30;87.60;;;;;;5093671;28;19919;-35
2023/01/20 08:11:43;;;;;;;;;;;3.40;87.60;;;;;;5093501;28;20008;-40
2023/01/20 08:14:08;;;;;;;;;;;3.30;87.40;;;;;;5093448;28;20053;-40
2023/01/20 08:16:34;;;;;;;;;;;3.30;87.50;;;;;;5093857;28;20368;-35
2023/01/20 08:18:59;;;;;;;;;;;3.30;87.40;;;;;;5093399;28;19913;-37
2023/01/20 08:21:26;;;;;;;;;;;3.30;87.50;;;;;;5093317;28;19923;-35
2023/01/20 08:23:54;;;;;;;;;;;3.30;87.60;;;;;;5092060;28;19912;-36
2023/01/20 08:26:19;;;;;;;;;;;3.30;87.60;;;;;;5093291;28;19964;-35
2023/01/20 08:28:45;;;;;;;;;;;3.30;87.60;;;;;;5093584;28;19936;-35
2023/01/20 08:31:11;;;;;;;;;;;3.30;87.60;;;;;;5092046;28;19919;-35
2023/01/20 08:33:37;;;;;;;;;;;3.40;87.70;;;;;;5091637;28;19935;-36
2023/01/20 08:36:07;;;;;;;;;;;3.30;87.60;;;;;;5093537;28;20367;-36
2023/01/20 08:38:33;;;;;;;;;;;3.30;87.50;;;;;;5092917;28;19916;-33
2023/01/20 08:40:59;;;;;;;;;;;3.40;87.60;;;;;;5092940;28;19919;-29
2023/01/20 08:43:24;;;;;;;;;;;3.40;87.60;;;;;;5092663;28;20003;-35
2023/01/20 08:46:04;;;;;;;;;;;3.40;87.60;;;;;;5093000;28;19912;-34
2023/01/20 08:48:29;;;;;;;;;;;3.40;87.60;;;;;;5091472;28;20328;-32
2023/01/20 08:50:55;;;;;;;;;;;3.40;87.60;;;;;;5092948;28;19974;-30
2023/01/20 08:53:20;;;;;;;;;;;3.40;87.60;;;;;;5092721;28;19912;-29
2023/01/20 08:55:55;;;;;;;;;;;3.50;87.60;;;;;;5092798;28;19959;-36
2023/01/20 08:58:21;;;;;;;;;;;3.50;87.60;;;;;;5092876;28;19912;-31
2023/01/20 09:00:46;;;;;;;;;;;3.50;87.50;;;;;;5092516;28;19919;-31
2023/01/20 09:03:12;;;;;;;;;;;3.50;87.40;;;;;;5092801;28;19912;-27
2023/01/20 09:05:38;;;;;;;;;;;3.50;87.50;;;;;;5092881;28;19920;-26
2023/01/20 09:08:03;;;;;;;;;;;3.50;87.40;;;;;;5092761;28;20239;-28
2023/01/20 09:10:31;;;;;;;;;;;3.50;87.50;;;;;;5092653;28;19920;-26
2023/01/20 09:12:56;;;;;;;;;;;3.50;87.40;;;;;;5092381;28;20068;-27
2023/01/20 09:15:22;;;;;;;;;;;3.50;87.40;;;;;;5092729;28;20014;-28
2023/01/20 09:17:47;;;;;;;;;;;3.50;87.50;;;;;;5092372;28;20417;-34
2023/01/20 09:20:13;;;;;;;;;;;3.60;87.50;;;;;;5092376;28;19916;-27
2023/01/20 09:22:39;;;;;;;;;;;3.60;87.50;;;;;;5092370;28;19923;-28
2023/01/20 09:25:05;;;;;;;;;;;3.60;87.60;;;;;;5092656;28;20268;-29
2023/01/20 09:27:31;;;;;;;;;;;3.60;87.50;;;;;;5092534;28;20264;-29
2023/01/20 09:29:56;;;;;;;;;;;3.60;87.40;;;;;;5092236;28;19912;-33
2023/01/20 09:32:22;;;;;;;;;;;3.60;87.50;;;;;;5092527;28;19912;-31
2023/01/20 09:34:47;;;;;;;;;;;3.60;87.40;;;;;;5092446;28;19916;-28
2023/01/20 09:45:44;;;;;;;;;;;3.60;87.50;;;;;;5092090;28;19935;-30
2023/01/20 09:54:13;;;;;;;;;;;3.60;87.50;;;;;;5092862;28;19919;-29
2023/01/20 09:56:42;;;;;;;;;;;3.60;87.60;;;;;;5095971;28;19916;-32
2023/01/20 09:59:29;;;;;;;;;;;3.60;87.60;;;;;;5094598;28;19912;-36
2023/01/20 10:01:56;;;;;;;;;;;3.50;87.60;;;;;;5096081;28;19919;-28
2023/01/20 10:04:22;;;;;;;;;;;3.50;87.70;;;;;;5096116;28;19919;-33
2023/01/20 10:06:50;;;;;;;;;;;3.50;87.70;;;;;;5095974;28;20352;-33
2023/01/20 10:09:20;;;;;;;;;;;3.50;87.70;;;;;;5095871;28;20421;-26
2023/01/20 10:11:47;;;;;;;;;;;3.60;87.80;;;;;;5095711;28;19966;-30
2023/01/20 10:14:22;;;;;;;;;;;3.50;87.80;;;;;;5095456;28;20008;-30
2023/01/20 10:16:50;;;;;;;;;;;3.60;87.80;;;;;;5095856;28;19912;-27
2023/01/20 10:19:45;;;;;;;;;;;3.60;87.80;;;;;;5095704;28;19935;-32
2023/01/20 10:22:19;;;;;;;;;;;3.60;87.80;;;;;;5081827;28;19912;-28
2023/01/20 10:24:51;;;;;;;;;;;3.60;87.80;;;;;;5095632;28;19920;-26
2023/01/20 10:27:17;;;;;;;;;;;3.60;88.00;;;;;;5095719;28;19912;-30
2023/01/20 10:29:45;;;;;;;;;;;3.60;88.00;;;;;;5095501;28;20003;-29
2023/01/20 10:32:14;;;;;;;;;;;3.60;88.00;;;;;;5095685;28;19912;-26
2023/01/20 10:34:45;;;;;;;;;;;3.60;87.90;;;;;;5094021;28;19916;-32
2023/01/20 10:37:11;;;;;;;;;;;3.60;87.90;;;;;;5095657;28;19912;-28
2023/01/20 10:39:48;;;;;;;;;;;3.60;88.00;;;;;;5095306;28;20461;-27
2023/01/20 10:42:15;;;;;;;;;;;3.60;88.00;;;;;;5095606;28;20360;-27
2023/01/20 10:44:41;;;;;;;;;;;3.60;88.00;;;;;;5095539;28;20003;-26
2023/01/20 10:47:15;;;;;;;;;;;3.70;88.00;;;;;;5095119;28;19978;-26
2023/01/20 10:49:41;;;;;;;;;;;3.70;88.00;;;;;;5095229;28;19935;-30
2023/01/20 10:52:13;;;;;;;;;;;3.70;88.00;;;;;;5095080;28;19912;-30
2023/01/20 10:54:57;;;;;;;;;;;3.70;87.90;;;;;;5093382;28;20382;-31
2023/01/20 10:57:23;;;;;;;;;;;3.70;87.90;;;;;;5094489;28;19912;-31
2023/01/20 10:59:50;;;;;;;;;;;3.80;88.00;;;;;;5094938;28;19915;-35
2023/01/20 11:02:21;;;;;;;;;;;3.80;88.00;;;;;;5095239;28;19912;-26
2023/01/20 11:04:51;;;;;;;;;;;3.80;88.00;;;;;;5093450;28;19909;-32
2023/01/20 11:07:17;;;;;;;;;;;3.80;88.00;;;;;;5094983;28;19977;-31
2023/01/20 11:09:45;;;;;;;;;;;3.80;88.00;;;;;;5094724;28;19909;-29
2023/01/20 11:12:15;;;;;;;;;;;3.90;87.90;;;;;;5094560;28;20353;-28
2023/01/20 11:14:41;;;;;;;;;;;3.90;88.20;;;;;;5094220;28;19927;-27
2023/01/20 11:17:11;;;;;;;;;;;3.90;87.90;;;;;;5094614;28;19912;-24
2023/01/20 11:19:49;;;;;;;;;;;4.00;87.90;;;;;;5094470;28;19912;-31
2023/01/20 11:22:19;;;;;;;;;;;4.10;87.80;;;;;;5094993;28;19916;-29
2023/01/20 11:24:45;;;;;;;;;;;4.10;87.80;;;;;;5094971;28;20053;-29
2023/01/20 11:27:17;;;;;;;;;;;4.20;87.80;;;;;;5094833;28;19912;-32
2023/01/20 11:29:47;;;;;;;;;;;4.20;87.60;;;;;;5094441;28;19908;-32
2023/01/20 11:32:31;;;;;;;;;;;4.20;87.50;;;;;;5094890;28;19908;-30
2023/01/20 11:34:57;;;;;;;;;;;4.20;87.50;;;;;;5094274;28;19971;-29
2023/01/20 11:37:33;;;;;;;;;;;4.30;87.60;;;;;;5094343;28;20398;-36
2023/01/20 11:39:59;;;;;;;;;;;4.20;87.50;;;;;;5094104;28;19908;-36
2023/01/20 11:42:29;;;;;;;;;;;4.20;87.50;;;;;;5094356;28;20405;-35
2023/01/20 11:44:56;;;;;;;;;;;4.20;87.60;;;;;;5094493;28;20256;-38
2023/01/20 11:47:29;;;;;;;;;;;4.20;87.80;;;;;;5094369;28;20366;-29
2023/01/20 11:50:07;;;;;;;;;;;4.30;88.00;;;;;;5094503;28;19918;-28
2023/01/20 11:52:35;;;;;;;;;;;4.30;88.00;;;;;;5094599;28;19972;-30
2023/01/20 11:55:08;;;;;;;;;;;4.30;88.10;;;;;;5094242;28;19912;-36
2023/01/20 11:57:36;;;;;;;;;;;4.20;89.00;;;;;;5094222;28;20344;-28
2023/01/20 12:00:02;;;;;;;;;;;4.20;89.50;;;;;;5094299;28;19908;-30
2023/01/20 12:02:28;;;;;;;;;;;4.20;89.60;;;;;;5094373;28;19933;-31
2023/01/20 12:05:15;;;;;;;;;;;4.20;89.80;;;;;;5094696;28;20449;-28
2023/01/20 12:07:43;;;;;;;;;;;4.20;89.70;;;;;;5093987;28;19915;-27
2023/01/20 12:10:19;;;;;;;;;;;4.20;90.00;;;;;;5094085;28;19912;-33
2023/01/20 12:12:56;;;;;;;;;;;4.20;90.30;;;;;;5094018;28;19908;-30
2023/01/20 12:15:23;;;;;;;;;;;4.20;90.70;;;;;;5093837;28;19923;-31
2023/01/20 12:17:59;;;;;;;;;;;4.20;90.80;;;;;;5093452;28;19915;-28
2023/01/20 12:20:27;;;;;;;;;;;4.20;90.80;;;;;;5093935;28;19916;-31
2023/01/20 12:23:12;;;;;;;;;;;4.30;91.60;;;;;;5093438;28;19908;-26
2023/01/20 12:25:47;;;;;;;;;;;4.20;91.90;;;;;;5092357;28;19915;-31
2023/01/20 12:28:21;;;;;;;;;;;4.20;92.10;;;;;;5093385;28;19908;-28
2023/01/20 12:30:52;;;;;;;;;;;4.20;92.10;;;;;;5093322;28;20472;-31
2023/01/20 12:33:24;;;;;;;;;;;4.20;92.00;;;;;;5093472;28;20367;-36
2023/01/20 12:36:01;;;;;;;;;;;4.10;91.90;;;;;;5093315;28;20463;-38
2023/01/20 12:38:28;;;;;;;;;;;4.10;92.10;;;;;;5093359;28;19938;-28
2023/01/20 12:40:55;;;;;;;;;;;4.10;92.40;;;;;;5093190;28;19909;-32
2023/01/20 12:43:21;;;;;;;;;;;4.10;92.60;;;;;;5093014;28;19908;-29
2023/01/20 12:46:05;;;;;;;;;;;4.10;92.70;;;;;;5092979;28;19931;-28
2023/01/20 12:48:31;;;;;;;;;;;4.10;92.60;;;;;;5092969;28;19964;-28
2023/01/20 12:51:05;;;;;;;;;;;4.10;92.50;;;;;;5093117;28;20403;-30
2023/01/20 12:53:55;;;;;;;;;;;4.20;92.40;;;;;;5093145;28;19908;-29
2023/01/20 12:56:20;;;;;;;;;;;4.20;92.30;;;;;;5092674;28;19912;-28
2023/01/20 12:59:04;;;;;;;;;;;4.20;92.30;;;;;;5092833;28;19908;-28
2023/01/20 13:01:29;;;;;;;;;;;4.30;92.30;;;;;;5093286;28;20363;-27
2023/01/20 13:04:10;;;;;;;;;;;4.30;92.20;;;;;;5093510;28;19915;-30
2023/01/20 13:06:36;;;;;;;;;;;4.30;92.10;;;;;;5091934;28;19958;-27
2023/01/20 13:09:05;;;;;;;;;;;4.30;92.00;;;;;;5093373;28;19957;-27
2023/01/20 13:11:36;;;;;;;;;;;4.40;91.80;;;;;;5093193;28;19908;-29
2023/01/20 13:14:11;;;;;;;;;;;4.30;91.70;;;;;;5093085;28;20442;-35
2023/01/20 13:16:48;;;;;;;;;;;4.30;91.60;;;;;;5093282;28;19916;-29
2023/01/20 13:19:15;;;;;;;;;;;4.30;91.60;;;;;;5092992;28;20045;-31
2023/01/20 13:21:41;;;;;;;;;;;4.40;91.60;;;;;;5092951;28;19961;-28
2023/01/20 13:24:17;;;;;;;;;;;4.40;91.50;;;;;;5093244;28;19909;-26
2023/01/20 13:26:44;;;;;;;;;;;4.40;91.40;;;;;;5092965;28;20371;-29
2023/01/20 13:29:18;;;;;;;;;;;4.40;91.40;;;;;;5091973;28;19908;-32
2023/01/20 13:31:44;;;;;;;;;;;4.40;91.30;;;;;;5092730;28;19909;-30
2023/01/20 13:34:22;;;;;;;;;;;4.50;91.30;;;;;;5092953;28;19912;-32
2023/01/20 13:37:02;;;;;;;;;;;4.50;91.30;;;;;;5093086;28;19915;-32
2023/01/20 13:39:28;;;;;;;;;;;4.50;91.20;;;;;;5092875;28;19908;-32
2023/01/20 13:41:53;;;;;;;;;;;4.50;91.10;;;;;;5092937;28;20094;-36
2023/01/20 13:44:32;;;;;;;;;;;4.50;91.00;;;;;;5092672;28;19939;-31
2023/01/20 13:46:58;;;;;;;;;;;4.50;90.90;;;;;;5092869;28;19908;-27
2023/01/20 13:49:24;;;;;;;;;;;4.50;90.90;;;;;;5092826;28;19915;-26
2023/01/20 13:51:50;;;;;;;;;;;4.50;90.90;;;;;;5092823;28;19908;-30
2023/01/20 13:54:35;;;;;;;;;;;4.50;90.80;;;;;;5092868;28;20303;-33
2023/01/20 13:57:26;;;;;;;;;;;4.50;90.80;;;;;;5092700;28;19940;-32
2023/01/20 13:59:53;;;;;;;;;;;4.50;90.80;;;;;;5092868;28;20274;-30
2023/01/20 14:02:19;;;;;;;;;;;4.50;90.90;;;;;;5092836;28;20422;-29
2023/01/20 14:04:45;;;;;;;;;;;4.50;90.80;;;;;;5092504;28;19912;-29
2023/01/20 14:07:28;;;;;;;;;;;4.50;90.80;;;;;;5092538;28;19908;-30
2023/01/20 14:09:55;;;;;;;;;;;4.50;90.70;;;;;;5092746;28;19931;-32
2023/01/20 14:12:20;;;;;;;;;;;4.50;90.70;;;;;;5092815;28;20278;-29
2023/01/20 14:14:49;;;;;;;;;;;4.50;90.70;;;;;;5092111;28;19978;-28
2023/01/20 14:17:21;;;;;;;;;;;4.50;90.60;;;;;;5092421;28;20011;-29
2023/01/20 14:19:48;;;;;;;;;;;4.50;90.60;;;;;;5092153;28;19908;-28
2023/01/20 14:22:30;;;;;;;;;;;4.50;90.50;;;;;;5092456;28;19931;-31
2023/01/20 14:24:57;;;;;;;;;;;4.50;90.50;;;;;;5090777;28;20330;-29
2023/01/20 14:27:28;;;;;;;;;;;4.50;90.40;;;;;;5092183;28;20338;-29
2023/01/20 14:29:55;;;;;;;;;;;4.50;90.50;;;;;;5092122;28;19909;-29
2023/01/20 14:32:28;;;;;;;;;;;4.50;90.50;;;;;;5092352;28;19915;-26
2023/01/20 14:34:54;;;;;;;;;;;4.50;90.50;;;;;;5091931;28;19957;-34
2023/01/20 14:37:22;;;;;;;;;;;4.50;90.70;;;;;;5092069;28;19908;-29
2023/01/20 14:39:48;;;;;;;;;;;4.40;90.50;;;;;;5092716;28;20615;-29
2023/01/20 14:42:18;;;;;;;;;;;4.40;90.50;;;;;;5095775;28;19909;-27
2023/01/20 14:44:46;;;;;;;;;;;4.40;90.50;;;;;;5095831;28;19915;-28
2023/01/20 14:47:12;;;;;;;;;;;4.40;90.50;;;;;;5095584;28;19977;-29
2023/01/20 14:49:38;;;;;;;;;;;4.40;90.50;;;;;;5095748;28;19908;-31
2023/01/20 14:52:04;;;;;;;;;;;4.40;90.50;;;;;;5095949;28;19912;-31